Time;durP1;ratioP1;P1;durP2;ratioP2;P2;SDS_P1;SDS_P2;PMS_P1;PMS_P2;Temp;Humidity;BMP_temperature;BMP_pressure;BME280_temperature;BME280_humidity;BME280_pressure;Samples;Min_cycle;Max_cycle;Signal;HPM_P1;HPM_P2
2021/04/19 00:01:53;;;;;;;14.15;5.38;;;6.70;99.90;;;;;;5013255;28;20399;-62
2021/04/19 00:04:19;;;;;;;18.33;6.07;;;6.80;99.90;;;;;;5019244;28;20447;-62
2021/04/19 00:06:44;;;;;;;13.30;5.35;;;6.70;99.90;;;;;;5014762;28;20045;-62
2021/04/19 00:09:10;;;;;;;8.48;4.93;;;6.60;99.90;;;;;;5018749;28;20036;-62
2021/04/19 00:11:36;;;;;;;10.07;5.40;;;6.70;99.90;;;;;;5017994;28;20025;-62
2021/04/19 00:14:03;;;;;;;10.65;5.47;;;6.60;99.90;;;;;;5017067;28;20037;-62
2021/04/19 00:16:28;;;;;;;17.70;5.35;;;6.50;99.90;;;;;;5014404;28;20037;-62
2021/04/19 00:18:54;;;;;;;15.70;5.45;;;6.60;99.90;;;;;;5015706;28;20037;-62
2021/04/19 00:21:20;;;;;;;11.15;4.72;;;6.50;99.90;;;;;;5017171;28;20062;-63
2021/04/19 00:23:46;;;;;;;8.88;5.05;;;6.40;99.90;;;;;;5017817;28;20033;-63
2021/04/19 00:26:12;;;;;;;10.27;5.43;;;6.40;99.90;;;;;;5015916;28;20038;-62
2021/04/19 00:28:37;;;;;;;14.32;4.90;;;6.30;99.90;;;;;;5018326;28;20029;-62
2021/04/19 00:31:03;;;;;;;12.55;5.90;;;6.20;99.90;;;;;;5020494;28;20039;-62
2021/04/19 00:33:29;;;;;;;8.27;4.93;;;6.30;99.90;;;;;;5018463;28;20393;-62
2021/04/19 00:35:55;;;;;;;8.48;4.80;;;6.20;99.90;;;;;;5021109;28;20044;-62
2021/04/19 00:38:21;;;;;;;11.48;5.13;;;6.20;99.90;;;;;;5017102;28;20133;-62
2021/04/19 00:40:49;;;;;;;8.82;5.05;;;6.20;99.90;;;;;;5019731;28;20034;-62
2021/04/19 00:43:15;;;;;;;8.65;4.72;;;6.10;99.90;;;;;;5017382;28;20029;-62
2021/04/19 00:45:41;;;;;;;9.85;4.95;;;6.10;99.90;;;;;;5018112;28;20107;-62
2021/04/19 00:48:08;;;;;;;9.00;4.75;;;6.00;99.90;;;;;;5016686;28;20479;-62
2021/04/19 00:50:34;;;;;;;7.57;4.43;;;6.10;99.90;;;;;;5017046;28;20108;-62
2021/04/19 00:53:02;;;;;;;10.02;4.80;;;6.10;99.90;;;;;;5015411;28;20034;-62
2021/04/19 00:55:28;;;;;;;9.43;4.85;;;6.10;99.90;;;;;;5019605;28;20064;-62
2021/04/19 00:57:54;;;;;;;9.13;5.03;;;6.20;99.90;;;;;;5015448;28;20443;-62
2021/04/19 01:00:29;;;;;;;11.73;6.18;;;6.10;99.90;;;;;;5018615;28;20041;-62
2021/04/19 01:02:55;;;;;;;10.13;5.70;;;6.00;99.90;;;;;;5015094;28;20029;-62
2021/04/19 01:05:31;;;;;;;13.80;5.35;;;6.00;99.90;;;;;;5020815;28;20090;-62
2021/04/19 01:07:57;;;;;;;11.55;4.97;;;5.90;99.90;;;;;;5014349;28;20883;-62
2021/04/19 01:10:23;;;;;;;12.27;4.78;;;5.90;99.90;;;;;;5018151;28;20026;-63
2021/04/19 01:12:50;;;;;;;13.13;5.55;;;5.90;99.90;;;;;;5016767;28;20385;-62
2021/04/19 01:15:17;;;;;;;9.38;4.90;;;5.80;99.90;;;;;;5016917;28;20140;-62
2021/04/19 01:17:45;;;;;;;14.18;5.25;;;5.90;99.90;;;;;;5015342;28;20026;-62
2021/04/19 01:20:14;;;;;;;9.93;4.70;;;5.80;99.90;;;;;;5016590;28;20053;-62
2021/04/19 01:22:40;;;;;;;6.78;4.13;;;5.80;99.90;;;;;;5016162;28;20033;-62
2021/04/19 01:25:08;;;;;;;10.93;5.05;;;5.70;99.90;;;;;;5020033;28;20080;-62
2021/04/19 01:27:34;;;;;;;13.40;5.85;;;5.80;99.90;;;;;;5014966;28;20037;-62
2021/04/19 01:30:00;;;;;;;10.32;4.80;;;5.80;99.90;;;;;;5017728;28;20515;-62
2021/04/19 01:32:27;;;;;;;7.95;4.35;;;5.80;99.90;;;;;;5014529;28;20041;-63
2021/04/19 01:34:53;;;;;;;13.00;5.90;;;5.80;99.90;;;;;;5015107;28;20029;-62
2021/04/19 01:37:18;;;;;;;10.65;4.80;;;5.80;99.90;;;;;;5018145;28;20087;-62
2021/04/19 01:39:45;;;;;;;8.65;4.75;;;5.80;99.90;;;;;;5019477;28;20135;-62
2021/04/19 01:42:11;;;;;;;8.35;4.50;;;5.70;99.90;;;;;;5016553;28;20813;-62
2021/04/19 01:44:37;;;;;;;10.50;4.90;;;5.60;99.90;;;;;;5015355;28;20025;-62
2021/04/19 01:47:03;;;;;;;7.57;3.88;;;5.60;99.90;;;;;;5013719;28;20128;-62
2021/04/19 01:49:30;;;;;;;9.73;4.55;;;5.60;99.90;;;;;;5013022;28;20363;-62
2021/04/19 01:51:57;;;;;;;8.02;4.60;;;5.70;99.90;;;;;;5016982;28;20053;-63
2021/04/19 01:54:23;;;;;;;9.98;4.50;;;5.70;99.90;;;;;;5015147;28;20029;-62
2021/04/19 01:56:49;;;;;;;8.13;4.07;;;5.60;99.90;;;;;;5018834;28;20026;-62
2021/04/19 01:59:16;;;;;;;9.63;4.63;;;5.50;99.90;;;;;;5015928;28;20025;-62
2021/04/19 02:01:59;;;;;;;8.50;4.10;;;5.40;99.90;;;;;;5015464;28;20049;-62
2021/04/19 02:04:46;;;;;;;7.38;4.22;;;5.40;99.90;;;;;;5015756;28;20029;-62
2021/04/19 02:07:27;;;;;;;10.05;4.43;;;5.40;99.90;;;;;;5017732;28;20124;-62
2021/04/19 02:10:35;;;;;;;6.30;4.28;;;5.40;99.90;;;;;;5018040;28;20076;-62
2021/04/19 02:13:28;;;;;;;8.90;5.43;;;5.40;99.90;;;;;;5012358;28;20187;-63
2021/04/19 02:16:25;;;;;;;14.57;5.05;;;5.40;99.90;;;;;;5018043;28;20763;-62
2021/04/19 02:19:16;;;;;;;7.68;4.25;;;5.30;99.90;;;;;;5014712;28;20052;-62
2021/04/19 02:21:45;;;;;;;11.23;4.22;;;5.20;99.90;;;;;;5017970;28;20551;-62
2021/04/19 02:24:14;;;;;;;10.52;4.70;;;5.20;99.90;;;;;;5013720;28;20037;-62
2021/04/19 02:26:48;;;;;;;11.98;4.80;;;5.10;99.90;;;;;;5017599;28;20041;-65
2021/04/19 02:29:23;;;;;;;6.60;4.00;;;5.10;99.90;;;;;;5014436;28;20052;-62
2021/04/19 02:31:54;;;;;;;11.95;4.78;;;5.00;99.90;;;;;;5015211;28;20052;-62
2021/04/19 02:34:21;;;;;;;9.80;5.10;;;4.90;99.90;;;;;;5015728;28;20797;-62
2021/04/19 02:36:50;;;;;;;8.05;4.70;;;4.90;99.90;;;;;;5018169;28;20045;-62
2021/04/19 02:39:17;;;;;;;9.43;4.50;;;4.80;99.90;;;;;;5017575;28;20021;-62
2021/04/19 02:41:47;;;;;;;7.88;4.47;;;4.80;99.90;;;;;;5016005;28;20494;-62
2021/04/19 02:44:15;;;;;;;10.40;5.40;;;4.80;99.90;;;;;;5015958;28;20797;-62
2021/04/19 02:46:42;;;;;;;8.55;4.32;;;4.80;99.90;;;;;;5015818;28;20053;-62
2021/04/19 02:49:09;;;;;;;12.93;5.85;;;4.70;99.90;;;;;;5015936;28;20067;-62
2021/04/19 02:51:35;;;;;;;9.95;5.00;;;4.60;99.90;;;;;;5016134;28;20128;-62
2021/04/19 02:54:02;;;;;;;9.70;4.45;;;4.70;99.90;;;;;;5016893;28;20029;-62
2021/04/19 02:56:36;;;;;;;8.40;4.47;;;4.70;99.90;;;;;;5016047;28;20370;-62
2021/04/19 02:59:08;;;;;;;8.60;4.72;;;4.60;99.90;;;;;;5016850;28;20072;-62
2021/04/19 03:01:36;;;;;;;8.93;4.60;;;4.60;99.90;;;;;;5011793;28;20552;-62
2021/04/19 03:04:07;;;;;;;6.97;4.22;;;4.70;99.90;;;;;;5015414;28;20037;-62
2021/04/19 03:06:38;;;;;;;12.75;4.45;;;4.80;99.90;;;;;;5013111;28;20049;-62
2021/04/19 03:09:05;;;;;;;7.93;5.22;;;4.80;99.90;;;;;;5015764;28;20049;-62
2021/04/19 03:11:41;;;;;;;11.00;4.72;;;4.70;99.90;;;;;;5014099;28;20025;-63
2021/04/19 03:14:10;;;;;;;9.77;4.78;;;4.60;99.90;;;;;;5012576;28;20038;-62
2021/04/19 03:16:39;;;;;;;10.27;4.63;;;4.50;99.90;;;;;;5018604;28;20040;-62
2021/04/19 03:19:08;;;;;;;8.85;4.38;;;4.50;99.90;;;;;;5013219;28;20057;-62
2021/04/19 03:21:37;;;;;;;8.48;4.65;;;4.30;99.90;;;;;;5015827;28;20046;-62
2021/04/19 03:24:06;;;;;;;9.68;4.72;;;4.40;99.90;;;;;;5013565;28;20120;-62
2021/04/19 03:26:34;;;;;;;8.43;4.53;;;4.40;99.90;;;;;;5010499;28;20694;-62
2021/04/19 03:29:01;;;;;;;8.95;4.65;;;4.50;99.90;;;;;;5018270;28;20977;-62
2021/04/19 03:32:04;;;;;;;10.80;4.85;;;4.40;99.90;;;;;;5008554;28;20373;-62
2021/04/19 03:34:33;;;;;;;11.65;5.60;;;4.40;99.90;;;;;;5004510;28;20665;-62
2021/04/19 03:37:04;;;;;;;9.57;5.63;;;4.40;99.90;;;;;;5015422;28;20045;-62
2021/04/19 03:39:31;;;;;;;8.35;5.07;;;4.40;99.90;;;;;;5013324;28;20034;-62
2021/04/19 03:41:58;;;;;;;9.88;4.78;;;4.30;99.90;;;;;;5014581;28;20108;-62
2021/04/19 03:44:33;;;;;;;9.15;4.75;;;4.30;99.90;;;;;;5011856;28;20044;-62
2021/04/19 03:47:02;;;;;;;9.25;4.40;;;4.20;99.90;;;;;;5009709;28;20041;-62
2021/04/19 03:49:32;;;;;;;9.63;5.53;;;4.20;99.90;;;;;;5009622;28;20141;-62
2021/04/19 03:52:02;;;;;;;8.18;4.88;;;4.10;99.90;;;;;;5016432;28;20034;-62
2021/04/19 03:54:33;;;;;;;10.00;4.40;;;4.10;99.90;;;;;;5010820;28;20397;-62
2021/04/19 03:57:02;;;;;;;8.32;4.82;;;4.20;99.90;;;;;;5008951;28;20040;-62
2021/04/19 03:59:30;;;;;;;9.80;4.50;;;4.20;99.90;;;;;;5009285;28;20032;-62
2021/04/19 04:02:01;;;;;;;11.27;5.63;;;4.20;99.90;;;;;;5010938;28;20605;-62
2021/04/19 04:04:28;;;;;;;11.65;5.32;;;4.10;99.90;;;;;;5007548;28;20041;-69
2021/04/19 04:06:55;;;;;;;10.27;4.55;;;4.10;99.90;;;;;;5008432;28;20465;-67
2021/04/19 04:09:22;;;;;;;8.05;4.53;;;4.20;99.90;;;;;;5014848;28;20140;-66
2021/04/19 04:11:48;;;;;;;13.00;4.65;;;4.10;99.90;;;;;;5014701;28;20125;-66
2021/04/19 04:14:14;;;;;;;9.13;4.32;;;4.10;99.90;;;;;;5011825;28;20021;-66
2021/04/19 04:16:42;;;;;;;11.77;4.60;;;4.10;99.90;;;;;;5010840;28;20045;-67
2021/04/19 04:19:08;;;;;;;9.52;4.32;;;4.10;99.90;;;;;;5007597;28;20048;-66
2021/04/19 04:21:35;;;;;;;10.80;4.60;;;4.00;99.90;;;;;;5013083;28;20124;-66
2021/04/19 04:24:02;;;;;;;11.80;5.47;;;4.10;99.90;;;;;;5014383;28;20033;-66
2021/04/19 04:26:30;;;;;;;8.63;5.07;;;4.20;99.90;;;;;;5013999;28;20577;-67
2021/04/19 04:28:56;;;;;;;10.52;4.97;;;4.30;99.90;;;;;;5012467;28;20407;-67
2021/04/19 04:31:22;;;;;;;9.25;5.20;;;4.20;99.90;;;;;;5013814;28;20029;-66
2021/04/19 04:33:47;;;;;;;11.02;5.05;;;4.20;99.90;;;;;;5012347;28;20450;-67
2021/04/19 04:36:15;;;;;;;9.88;5.35;;;4.20;99.90;;;;;;5013437;28;20026;-67
2021/04/19 04:38:40;;;;;;;11.68;6.53;;;4.20;99.90;;;;;;5017003;28;20048;-66
2021/04/19 04:41:06;;;;;;;12.95;5.80;;;4.30;99.90;;;;;;5014465;28;20556;-67
2021/04/19 04:43:35;;;;;;;14.50;5.97;;;4.40;99.90;;;;;;5014087;28;20025;-68
2021/04/19 04:46:18;;;;;;;17.92;5.70;;;4.40;99.90;;;;;;5015068;28;20071;-67
2021/04/19 04:48:52;;;;;;;13.10;5.90;;;4.40;99.90;;;;;;5014951;28;20066;-67
2021/04/19 04:51:20;;;;;;;15.48;5.95;;;4.50;99.90;;;;;;5015585;28;20033;-66
2021/04/19 04:54:01;;;;;;;10.57;5.30;;;4.60;99.90;;;;;;5015083;28;20511;-67
2021/04/19 04:56:32;;;;;;;22.05;6.43;;;4.60;99.90;;;;;;5013787;28;20026;-67
2021/04/19 04:58:59;;;;;;;10.38;5.32;;;4.70;99.90;;;;;;5013436;28;20044;-67
2021/04/19 05:01:28;;;;;;;15.02;6.47;;;4.70;99.90;;;;;;5010964;28;20175;-67
2021/04/19 05:03:55;;;;;;;17.25;6.05;;;4.80;99.90;;;;;;5012251;28;20037;-67
2021/04/19 05:06:21;;;;;;;14.48;5.65;;;5.00;99.90;;;;;;5007211;28;20056;-67
2021/04/19 05:08:51;;;;;;;14.30;5.65;;;5.00;99.90;;;;;;5011927;28;20038;-68
2021/04/19 05:11:17;;;;;;;16.58;6.05;;;5.20;99.90;;;;;;5016110;28;20354;-67
2021/04/19 05:13:43;;;;;;;14.50;6.50;;;5.30;99.90;;;;;;5016922;28;20717;-67
2021/04/19 05:16:09;;;;;;;11.73;6.40;;;5.40;99.90;;;;;;5013479;28;20029;-67
2021/04/19 05:18:35;;;;;;;11.75;5.35;;;5.50;99.90;;;;;;5017664;28;20133;-67
2021/04/19 05:21:01;;;;;;;10.95;5.03;;;5.60;99.90;;;;;;5016222;28;20168;-67
2021/04/19 05:23:28;;;;;;;9.10;5.20;;;5.70;99.90;;;;;;5016737;28;20389;-67
2021/04/19 05:25:55;;;;;;;14.52;5.85;;;5.80;99.90;;;;;;5017919;28;20569;-67
2021/04/19 05:28:21;;;;;;;10.73;4.20;;;6.00;99.90;;;;;;5014864;28;20135;-66
2021/04/19 05:30:50;;;;;;;12.32;5.63;;;6.20;99.90;;;;;;5016238;28;20021;-67
2021/04/19 05:33:17;;;;;;;11.27;5.60;;;6.30;99.90;;;;;;5016790;28;20029;-67
2021/04/19 05:35:43;;;;;;;15.98;6.00;;;6.60;99.90;;;;;;5018985;28;20128;-67
2021/04/19 05:38:10;;;;;;;10.18;5.20;;;6.70;99.90;;;;;;5016501;28;20033;-67
2021/04/19 05:40:36;;;;;;;10.57;5.18;;;7.00;99.90;;;;;;5013849;28;20095;-67
2021/04/19 05:43:03;;;;;;;10.70;5.10;;;7.20;99.90;;;;;;5016380;28;20041;-67
2021/04/19 05:45:30;;;;;;;12.40;5.68;;;7.40;99.90;;;;;;5016437;28;20232;-67
2021/04/19 05:47:58;;;;;;;10.00;5.32;;;7.70;99.90;;;;;;5015866;28;20739;-67
2021/04/19 05:50:25;;;;;;;9.77;4.95;;;7.90;99.90;;;;;;5017672;28;20108;-67
2021/04/19 05:52:54;;;;;;;9.90;5.05;;;8.20;99.90;;;;;;5015684;28;20124;-67
2021/04/19 05:55:25;;;;;;;10.40;5.53;;;8.30;99.90;;;;;;5017566;28;20036;-67
2021/04/19 05:57:59;;;;;;;12.65;4.78;;;8.50;99.90;;;;;;5013632;28;20033;-67
2021/04/19 06:00:37;;;;;;;9.07;4.32;;;8.70;99.90;;;;;;5013785;28;20478;-68
2021/04/19 06:03:25;;;;;;;9.10;4.53;;;8.90;99.90;;;;;;5015435;28;20037;-67
2021/04/19 06:06:15;;;;;;;10.73;4.55;;;9.10;99.90;;;;;;5015131;28;20060;-68
2021/04/19 06:09:04;;;;;;;10.25;4.95;;;9.30;99.90;;;;;;5017323;28;20358;-67
2021/04/19 06:11:44;;;;;;;13.95;5.07;;;9.40;99.90;;;;;;5018125;28;20476;-67
2021/04/19 06:14:11;;;;;;;10.75;4.43;;;9.50;99.90;;;;;;5015693;28;20507;-67
2021/04/19 06:16:38;;;;;;;9.40;5.18;;;9.80;99.90;;;;;;5013322;28;20022;-68
2021/04/19 06:19:12;;;;;;;9.70;4.57;;;10.10;99.90;;;;;;5014520;28;20029;-67
2021/04/19 06:21:42;;;;;;;10.23;4.60;;;10.30;99.90;;;;;;5014157;28;20046;-67
2021/04/19 06:24:10;;;;;;;10.38;4.60;;;10.50;99.90;;;;;;5016609;28;20501;-68
2021/04/19 06:26:36;;;;;;;6.93;4.28;;;10.70;99.90;;;;;;5013245;28;20072;-68
2021/04/19 06:29:04;;;;;;;6.20;3.70;;;10.80;99.90;;;;;;5015551;28;20033;-68
2021/04/19 06:31:31;;;;;;;7.53;3.97;;;11.10;99.90;;;;;;5015050;28;20057;-67
2021/04/19 06:34:09;;;;;;;9.40;4.75;;;11.00;99.90;;;;;;5014199;28;20022;-68
2021/04/19 06:36:40;;;;;;;6.25;3.63;;;11.10;99.90;;;;;;5016539;28;20029;-67
2021/04/19 06:39:08;;;;;;;7.28;4.30;;;11.20;99.90;;;;;;5015349;28;20560;-68
2021/04/19 06:41:34;;;;;;;9.63;4.18;;;11.50;99.90;;;;;;5014339;28;20083;-68
2021/04/19 06:44:01;;;;;;;11.88;4.32;;;11.60;99.90;;;;;;5013736;28;20099;-68
2021/04/19 06:46:31;;;;;;;8.60;4.32;;;11.70;99.90;;;;;;5012700;28;20143;-68
2021/04/19 06:48:57;;;;;;;8.98;3.70;;;11.90;99.90;;;;;;5014125;28;20025;-68
2021/04/19 06:51:23;;;;;;;6.50;3.88;;;11.90;99.90;;;;;;5012662;28;20069;-68
2021/04/19 06:53:53;;;;;;;9.88;4.43;;;12.00;99.90;;;;;;5015654;28;20033;-68
2021/04/19 06:56:37;;;;;;;10.65;4.43;;;12.20;99.90;;;;;;5015622;28;20427;-69
2021/04/19 06:59:04;;;;;;;8.43;4.15;;;12.40;99.90;;;;;;5014965;28;20440;-68
2021/04/19 07:01:31;;;;;;;7.93;4.07;;;12.70;99.90;;;;;;5013419;28;20037;-68
2021/04/19 07:04:05;;;;;;;12.23;4.55;;;12.90;99.90;;;;;;5014104;28;20030;-67
2021/04/19 07:06:36;;;;;;;11.02;4.75;;;13.20;99.90;;;;;;5014255;28;20504;-67
2021/04/19 07:09:08;;;;;;;8.98;3.97;;;13.00;99.90;;;;;;5012673;28;20034;-67
2021/04/19 07:11:39;;;;;;;7.25;4.20;;;13.00;99.90;;;;;;5014063;28;20111;-68
2021/04/19 07:14:07;;;;;;;10.77;4.18;;;13.00;99.90;;;;;;5013542;28;20022;-68
2021/04/19 07:16:34;;;;;;;8.50;3.78;;;13.20;99.90;;;;;;5015241;28;20059;-68
2021/04/19 07:19:01;;;;;;;5.72;3.33;;;13.50;99.90;;;;;;5015561;28;20041;-68
2021/04/19 07:21:27;;;;;;;12.57;4.10;;;13.40;99.90;;;;;;5013673;28;20049;-67
2021/04/19 07:23:54;;;;;;;7.60;3.25;;;13.60;99.90;;;;;;5014944;28;20069;-68
2021/04/19 07:26:21;;;;;;;6.60;3.80;;;13.70;99.90;;;;;;5012361;28;20052;-68
2021/04/19 07:28:47;;;;;;;5.13;3.20;;;13.90;99.90;;;;;;5013824;28;20033;-67
2021/04/19 07:31:13;;;;;;;7.38;3.55;;;14.00;99.90;;;;;;5013487;28;20033;-68
2021/04/19 07:33:40;;;;;;;8.90;4.20;;;14.10;99.90;;;;;;5013068;28;20037;-68
2021/04/19 07:36:29;;;;;;;7.15;3.42;;;14.40;99.90;;;;;;5012985;28;20029;-68
2021/04/19 07:38:58;;;;;;;13.52;3.90;;;14.50;99.90;;;;;;5012701;28;20853;-67
2021/04/19 07:41:56;;;;;;;5.95;3.40;;;14.70;99.90;;;;;;5013674;28;20029;-68
2021/04/19 07:44:37;;;;;;;7.20;3.75;;;14.90;99.90;;;;;;5018004;28;20121;-67
2021/04/19 07:47:40;;;;;;;9.52;3.78;;;15.30;99.40;;;;;;5017439;28;20084;-67
2021/04/19 07:50:15;;;;;;;10.38;3.78;;;15.30;98.60;;;;;;5019013;28;20025;-68
2021/04/19 07:53:04;;;;;;;6.57;3.45;;;15.40;98.40;;;;;;5018777;28;20030;-68
2021/04/19 07:55:37;;;;;;;5.53;3.25;;;15.40;97.50;;;;;;5016607;28;20432;-68
2021/04/19 07:58:24;;;;;;;6.90;3.97;;;15.50;97.20;;;;;;5017527;28;20121;-66
2021/04/19 08:01:00;;;;;;;7.85;3.30;;;15.60;99.30;;;;;;4999059;28;20053;-66
2021/04/19 08:03:36;;;;;;;10.98;4.03;;;16.10;98.30;;;;;;5017183;28;20215;-66
2021/04/19 08:06:20;;;;;;;9.57;3.45;;;16.40;96.40;;;;;;5017828;28;20040;-69
2021/04/19 08:08:47;;;;;;;10.45;4.05;;;16.20;95.80;;;;;;5016776;28;20037;-67
2021/04/19 08:11:15;;;;;;;7.03;3.78;;;16.00;94.80;;;;;;5015056;28;20033;-67
2021/04/19 08:13:41;;;;;;;8.40;3.90;;;16.10;95.50;;;;;;5018719;28;20108;-68
2021/04/19 08:16:25;;;;;;;9.02;3.80;;;16.10;96.30;;;;;;5015627;28;20028;-67
2021/04/19 08:18:59;;;;;;;6.78;3.03;;;16.00;94.10;;;;;;5018402;28;20318;-68
2021/04/19 08:21:27;;;;;;;8.77;4.10;;;16.30;95.40;;;;;;5015450;28;20397;-68
2021/04/19 08:23:53;;;;;;;7.65;4.00;;;16.50;94.40;;;;;;5010066;28;20677;-68
2021/04/19 08:26:19;;;;;;;11.68;4.18;;;16.50;95.10;;;;;;5016828;28;20069;-66
2021/04/19 08:28:47;;;;;;;8.55;3.67;;;16.80;94.60;;;;;;5017562;28;20110;-66
2021/04/19 08:31:15;;;;;;;8.07;4.03;;;17.20;91.70;;;;;;5015770;28;20040;-66
2021/04/19 08:33:45;;;;;;;11.70;3.85;;;17.20;92.30;;;;;;5017621;28;20493;-66
2021/04/19 08:36:13;;;;;;;7.93;3.92;;;17.40;92.30;;;;;;5017394;28;20091;-66
2021/04/19 08:38:41;;;;;;;8.77;3.60;;;17.80;91.30;;;;;;5016512;28;20553;-66
2021/04/19 08:41:07;;;;;;;4.68;3.25;;;17.70;91.70;;;;;;5016975;28;20044;-67
2021/04/19 08:43:36;;;;;;;8.32;3.72;;;17.80;91.60;;;;;;5013896;28;20033;-65
2021/04/19 08:46:04;;;;;;;7.03;3.20;;;17.90;87.60;;;;;;5016619;28;20040;-66
2021/04/19 08:48:31;;;;;;;5.00;3.45;;;17.90;88.40;;;;;;5016893;28;20041;-66
2021/04/19 08:51:02;;;;;;;8.02;3.08;;;17.90;86.10;;;;;;5016506;28;22249;-66
2021/04/19 08:53:28;;;;;;;7.93;3.40;;;18.40;87.10;;;;;;5013215;28;20517;-66
2021/04/19 08:55:54;;;;;;;7.57;3.42;;;18.40;90.70;;;;;;5016898;28;20362;-67
2021/04/19 08:58:21;;;;;;;5.55;3.17;;;19.20;90.60;;;;;;5017414;28;20036;-67
2021/04/19 09:00:50;;;;;;;9.73;3.40;;;19.40;87.00;;;;;;5016567;28;20690;-66
2021/04/19 09:03:18;;;;;;;6.90;3.13;;;19.60;84.70;;;;;;5016647;28;20032;-67
2021/04/19 09:05:45;;;;;;;6.30;3.30;;;19.80;85.70;;;;;;5016022;28;20041;-67
2021/04/19 09:08:15;;;;;;;5.63;3.25;;;19.90;80.80;;;;;;5015288;28;20040;-67
2021/04/19 09:11:06;;;;;;;4.80;2.90;;;19.80;78.60;;;;;;5014876;28;20029;-67
2021/04/19 09:13:35;;;;;;;7.60;3.22;;;19.80;77.90;;;;;;5017335;28;20033;-67
2021/04/19 09:16:22;;;;;;;4.80;2.58;;;19.60;75.10;;;;;;5016098;28;20563;-67
2021/04/19 09:18:54;;;;;;;5.70;3.10;;;19.50;78.60;;;;;;5016578;28;20031;-66
2021/04/19 09:21:34;;;;;;;5.90;3.30;;;19.50;80.50;;;;;;5016427;28;20056;-66
2021/04/19 09:24:01;;;;;;;8.13;3.13;;;19.60;80.30;;;;;;5016311;28;20124;-67
2021/04/19 09:26:47;;;;;;;8.80;3.35;;;19.70;80.10;;;;;;5015066;28;20515;-67
2021/04/19 09:29:25;;;;;;;7.30;3.45;;;20.00;74.20;;;;;;5015964;28;20022;-67
2021/04/19 09:32:03;;;;;;;6.95;3.42;;;19.70;73.40;;;;;;5015666;28;20037;-66
2021/04/19 09:34:49;;;;;;;5.97;3.30;;;19.60;77.60;;;;;;5016452;28;20499;-66
2021/04/19 09:37:22;;;;;;;7.22;2.70;;;19.80;77.20;;;;;;5016931;28;20542;-66
2021/04/19 09:39:58;;;;;;;5.75;2.75;;;20.20;76.10;;;;;;5014602;28;20034;-67
2021/04/19 09:42:55;;;;;;;10.38;3.50;;;20.70;76.00;;;;;;5014882;28;20037;-67
2021/04/19 09:45:44;;;;;;;9.52;3.22;;;20.60;69.70;;;;;;5016482;28;20175;-66
2021/04/19 09:48:40;;;;;;;4.63;2.60;;;20.50;73.80;;;;;;5015022;28;20041;-66
2021/04/19 09:51:13;;;;;;;7.03;3.72;;;20.50;74.40;;;;;;5011437;28;20052;-67
2021/04/19 09:53:59;;;;;;;7.00;3.00;;;20.60;73.00;;;;;;5014157;28;20481;-66
2021/04/19 09:56:32;;;;;;;7.18;3.08;;;21.10;73.80;;;;;;5012128;28;20343;-66
2021/04/19 09:58:58;;;;;;;8.80;3.70;;;21.10;73.60;;;;;;5014924;28;20044;-67
2021/04/19 10:01:26;;;;;;;5.13;2.70;;;21.20;72.30;;;;;;5014670;28;20032;-67
2021/04/19 10:03:54;;;;;;;8.35;2.58;;;21.20;72.00;;;;;;5013121;28;20059;-67
2021/04/19 10:06:36;;;;;;;6.20;2.67;;;20.70;71.30;;;;;;5011790;28;20030;-66
2021/04/19 10:09:03;;;;;;;6.18;3.20;;;20.50;71.00;;;;;;5014470;28;20143;-66
2021/04/19 10:11:33;;;;;;;6.10;3.38;;;20.40;71.40;;;;;;5016316;28;20033;-66
2021/04/19 10:14:06;;;;;;;6.85;2.90;;;20.40;72.60;;;;;;5012724;28;20398;-66
2021/04/19 10:16:42;;;;;;;5.72;2.33;;;20.50;67.40;;;;;;5013653;28;20037;-66
2021/04/19 10:19:08;;;;;;;4.90;2.50;;;20.50;69.70;;;;;;5011619;28;20429;-66
2021/04/19 10:21:34;;;;;;;5.30;2.80;;;20.50;69.60;;;;;;5015199;28;20348;-67
2021/04/19 10:24:00;;;;;;;6.63;2.58;;;20.90;71.80;;;;;;5016169;28;20360;-67
2021/04/19 10:26:39;;;;;;;7.35;2.78;;;21.10;74.20;;;;;;5015534;28;20041;-66
2021/04/19 10:29:15;;;;;;;6.85;2.85;;;21.50;72.20;;;;;;5013786;28;20064;-67
2021/04/19 10:32:01;;;;;;;9.85;2.90;;;22.20;68.60;;;;;;5015986;28;20507;-67
2021/04/19 10:34:32;;;;;;;6.93;2.70;;;22.40;66.50;;;;;;4994559;28;20033;-67
2021/04/19 10:37:01;;;;;;;5.65;2.55;;;22.60;67.50;;;;;;5015131;28;20481;-67
2021/04/19 10:39:32;;;;;;;8.57;2.88;;;22.70;68.10;;;;;;5014882;28;20508;-68
2021/04/19 10:42:00;;;;;;;7.63;3.05;;;22.70;70.60;;;;;;5015291;28;20037;-67
2021/04/19 10:44:41;;;;;;;7.70;3.17;;;22.80;62.30;;;;;;5014712;28;20437;-67
2021/04/19 10:47:11;;;;;;;6.18;2.95;;;22.20;64.00;;;;;;5016399;28;20038;-67
2021/04/19 10:49:38;;;;;;;4.78;2.60;;;21.80;64.70;;;;;;5014017;28;20497;-67
2021/04/19 10:52:09;;;;;;;5.20;2.70;;;21.70;65.80;;;;;;5015240;28;20033;-67
2021/04/19 10:54:40;;;;;;;8.93;2.95;;;21.90;66.70;;;;;;5012196;28;20025;-67
2021/04/19 10:57:08;;;;;;;5.00;2.60;;;22.30;66.40;;;;;;5014084;28;20034;-67
2021/04/19 10:59:35;;;;;;;7.38;2.55;;;22.30;63.30;;;;;;5015789;28;20043;-67
2021/04/19 11:02:07;;;;;;;5.95;2.40;;;22.30;62.80;;;;;;5015992;28;20169;-67
2021/04/19 11:04:34;;;;;;;4.63;2.15;;;22.20;58.90;;;;;;5014335;28;20106;-68
2021/04/19 11:07:22;;;;;;;5.07;2.55;;;21.90;58.80;;;;;;5015063;28;20498;-67
2021/04/19 11:10:22;;;;;;;6.95;2.35;;;21.90;57.40;;;;;;5012681;28;20485;-66
2021/04/19 11:13:06;;;;;;;5.30;2.00;;;21.80;56.40;;;;;;5014749;28;20026;-67
2021/04/19 11:15:40;;;;;;;3.80;2.13;;;21.60;56.70;;;;;;5014627;28;20036;-67
2021/04/19 11:18:27;;;;;;;6.20;2.40;;;21.60;56.00;;;;;;5017247;28;20075;-67
2021/04/19 11:20:57;;;;;;;5.28;2.40;;;21.80;60.10;;;;;;5019740;28;20057;-67
2021/04/19 11:23:30;;;;;;;7.57;2.80;;;21.90;58.30;;;;;;5019229;28;20031;-67
2021/04/19 11:26:01;;;;;;;6.15;2.08;;;22.10;59.90;;;;;;5018918;28;20133;-67
2021/04/19 11:28:30;;;;;;;7.40;2.10;;;22.20;56.20;;;;;;5018556;28;20445;-67
2021/04/19 11:30:58;;;;;;;6.35;2.28;;;22.10;58.30;;;;;;5016439;28;20573;-67
2021/04/19 11:33:27;;;;;;;6.97;2.47;;;21.70;55.50;;;;;;5019417;28;20099;-66
2021/04/19 11:36:05;;;;;;;4.38;2.00;;;21.90;59.30;;;;;;5018716;28;20111;-67
2021/04/19 11:38:35;;;;;;;8.47;2.63;;;21.90;57.40;;;;;;5018690;28;20040;-66
2021/04/19 11:41:07;;;;;;;10.90;2.50;;;22.10;57.50;;;;;;5018335;28;21404;-67
2021/04/19 11:43:37;;;;;;;4.40;2.45;;;22.30;58.20;;;;;;5018521;28;20033;-67
2021/04/19 11:46:06;;;;;;;4.97;2.45;;;22.50;59.10;;;;;;5017298;28;20036;-67
2021/04/19 11:48:34;;;;;;;5.63;2.67;;;22.70;58.70;;;;;;5017480;28;20048;-67
2021/04/19 11:51:00;;;;;;;7.95;3.25;;;22.70;58.80;;;;;;5016536;28;20526;-67
2021/04/19 11:53:28;;;;;;;6.13;2.42;;;22.70;58.60;;;;;;5018672;28;20111;-67
2021/04/19 11:55:55;;;;;;;8.65;2.33;;;23.10;58.00;;;;;;5017589;28;20113;-67
2021/04/19 11:58:22;;;;;;;4.80;2.53;;;23.10;53.40;;;;;;5018514;28;20029;-67
2021/04/19 12:00:51;;;;;;;10.93;3.22;;;23.20;58.20;;;;;;5017162;28;20033;-67
2021/04/19 12:03:21;;;;;;;7.43;2.60;;;23.00;53.50;;;;;;5017789;28;20033;-67
2021/04/19 12:05:47;;;;;;;4.18;2.38;;;23.00;58.20;;;;;;5018210;28;20041;-67
2021/04/19 12:08:15;;;;;;;6.47;2.65;;;23.20;56.00;;;;;;5015216;28;20509;-67
2021/04/19 12:10:41;;;;;;;11.35;2.50;;;23.10;55.10;;;;;;5017364;28;20299;-68
2021/04/19 12:13:14;;;;;;;9.30;2.83;;;23.20;58.00;;;;;;5016942;28;20044;-67
2021/04/19 12:15:41;;;;;;;10.18;3.72;;;23.00;55.50;;;;;;5018350;28;20068;-67
2021/04/19 12:18:08;;;;;;;8.85;3.35;;;23.20;55.90;;;;;;5016175;28;20022;-67
2021/04/19 12:20:34;;;;;;;12.60;3.63;;;23.30;57.40;;;;;;5015355;28;20199;-67
2021/04/19 12:22:59;;;;;;;8.52;3.03;;;23.40;56.50;;;;;;5016654;28;20666;-67
2021/04/19 12:25:26;;;;;;;6.57;2.70;;;23.50;58.80;;;;;;5017930;28;20159;-67
2021/04/19 12:27:52;;;;;;;8.20;3.20;;;23.50;57.80;;;;;;5015841;28;20034;-67
2021/04/19 12:30:18;;;;;;;10.40;2.95;;;23.20;54.30;;;;;;5008178;28;20037;-67
2021/04/19 12:32:44;;;;;;;14.73;3.53;;;23.20;56.20;;;;;;5014134;28;20040;-67
2021/04/19 12:35:10;;;;;;;8.38;3.17;;;23.10;55.20;;;;;;5015535;28;20445;-67
2021/04/19 12:37:36;;;;;;;7.90;3.78;;;23.00;57.80;;;;;;5012907;28;20650;-67
2021/04/19 12:40:03;;;;;;;12.95;4.55;;;22.90;54.40;;;;;;5011835;28;20473;-67
2021/04/19 12:42:28;;;;;;;7.65;4.30;;;22.50;54.50;;;;;;5017029;28;20045;-67
2021/04/19 12:44:54;;;;;;;7.38;3.63;;;22.40;55.80;;;;;;5015341;28;20061;-67
2021/04/19 12:47:20;;;;;;;8.70;3.55;;;22.80;56.60;;;;;;5015701;28;20077;-67
2021/04/19 12:49:46;;;;;;;8.75;3.92;;;23.10;55.50;;;;;;5014688;28;20026;-67
2021/04/19 12:52:11;;;;;;;8.27;3.45;;;23.10;56.00;;;;;;5015045;28;20044;-67
2021/04/19 12:54:37;;;;;;;6.32;3.03;;;22.80;57.30;;;;;;5015638;28;20026;-67
2021/04/19 12:57:04;;;;;;;6.63;3.58;;;22.90;60.00;;;;;;5016972;28;20390;-67
2021/04/19 12:59:29;;;;;;;9.80;3.53;;;23.40;57.50;;;;;;5015667;28;20088;-67
2021/04/19 13:01:55;;;;;;;8.93;4.07;;;22.90;56.80;;;;;;5016245;28;20026;-67
2021/04/19 13:04:22;;;;;;;6.13;2.97;;;23.00;58.40;;;;;;5016532;28;20035;-67
2021/04/19 13:06:47;;;;;;;6.80;3.38;;;23.10;56.20;;;;;;5014869;28;20033;-67